Walnut Grove, California
Current Conditions -  °F | °C
As of 6:53 AM on Thursday 18 Dec 2014 (Local Time) from KSAC Reporting Station
Overcast Overcast  
Wind Chill: 52°   Ceiling: 4700
Heat Index: 52°   Visibility: 10mi
Dew Point: 48°   Wind: 7mph
Humidity: 86%   Direction: 100°E
Pressure: 30.14"   Gusts: NA
Location:  38.24°N, 121.51°W
Report Text: KSAC 181453Z 10006KT 10SM OVC047 11/09 A3014 RMK AO2 SLP206 T01110089 53010
Loading
Personal Weather Stations






























Interactive Weather Map New forecast layout! Learn more

10-Day Weather Forecast

Advertisements
Track Severe Weather on mobile